• Join FlightAware (Why Join?)
  • Login
  • US Flag 
09:28PM EDT


 

Airport Tracker/Info


-or-


 

Live Flight TrackerFlight Track Log ✈ PDT4314 ✈ 20-Oct-2013 ✈ KPHL - KBGM

Flight Track Log - Related Links

Times and Time Zones

All times are in EDT time to prevent confusion due to time zone crossing. See the PDT4314 flight status page for this flight to view local times or setup timezone preferences in your user account.

Time Position Orientation Groundspeed Altitude Reporting Facility
EDT Latitude Longitude Course Direction KTS MPH feet Rate Location/Type
05:56PM 39.9000 -75.2333 294° West 113 130 400  Level Philadelphia TRACON
05:57PM 39.9167 -75.2833 294° West 133 153 1,900 1,140 Climbing Philadelphia TRACON
05:58PM 39.9167 -75.3167 270° West 134 154 2,900 900 Climbing Philadelphia TRACON
05:59PM 40.0653 -75.2999 323° Northwest  Level Estimated
05:59PM 39.9333 -75.3667 294° West 137 158 3,800  Level Philadelphia TRACON
06:00PM 40.1296 -75.3197 311° West  Level Estimated
06:00PM 39.9500 -75.4167 294° West 146 168 4,900  Level Philadelphia TRACON
06:01PM 40.1940 -75.3395 311° West  Level Estimated
06:01PM 39.9833 -75.4500 323° Northwest 143 165 6,000  Level Philadelphia TRACON
06:02PM 40.2210 -75.4184 294° West  Level FlightAware Approximate
06:02PM 40.0167 -75.4667 339° North 140 161 7,000  Level Philadelphia TRACON
06:04PM 40.0628 -75.4928 337° Northwest 152 175 8,100 780 Climbing New York Center
06:05PM 40.0994 -75.5117 338° Northwest 152 175 8,900 840 Climbing New York Center
06:06PM 40.1467 -75.5283 345° North 152 175 9,800 720 Climbing New York Center
06:07PM 40.1881 -75.5394 348° North 157 181 10,400 600 Climbing New York Center
06:08PM 40.2331 -75.5614 340° North 167 192 11,100 780 Climbing New York Center
06:09PM 40.2756 -75.5944 329° Northwest 167 192 12,000 840 Climbing New York Center
06:10PM 40.3225 -75.6167 340° North 167 192 12,800 720 Climbing New York Center
06:11PM 40.3631 -75.6442 333° Northwest 167 192 13,500 600 Climbing New York Center
06:12PM 40.4017 -75.6686 334° Northwest 172 198 14,000 240 Climbing New York Center
06:13PM 40.4503 -75.6994 334° Northwest 178 205 14,000  Level New York Center
06:14PM 40.5069 -75.7417 330° Northwest 202 232 14,000  Level New York Center
06:15PM 40.5617 -75.7756 335° Northwest 215 247 14,000  Level New York Center
06:16PM 40.6189 -75.8072 337° Northwest 215 247 14,000  Level New York Center
06:17PM 40.6672 -75.8436 330° Northwest 215 247 14,000  Level New York Center
06:18PM 40.7239 -75.8806 334° Northwest 220 253 14,000  Level New York Center
06:19PM 40.7850 -75.9181 335° Northwest 220 253 14,000  Level New York Center
06:20PM 40.8369 -75.9658 325° Northwest 214 246 14,000  Level New York Center
06:21PM 40.8836 -75.9969 333° Northwest 221 254 14,000  Level New York Center
06:22PM 40.9425 -76.0317 336° Northwest 221 254 14,000  Level New York Center
06:23PM 41.0078 -76.0614 341° North 221 254 14,000  Level New York Center
06:24PM 41.0669 -76.0908 339° North 228 262 14,000  Level New York Center
06:25PM 41.1153 -76.1278 330° Northwest 228 262 14,000  Level New York Center
06:26PM 41.1697 -76.1678 331° Northwest 223 257 14,000  Level New York Center
06:27PM 41.2322 -76.2114 332° Northwest 223 257 14,000  Level New York Center
06:28PM 41.2989 -76.2086 North 223 257 14,000  Level New York Center
06:29PM 41.3686 -76.1919 10° North 241 277 14,000  Level New York Center
06:30PM 41.4311 -76.1914 360° North 246 283 14,000 -240 Level New York Center
06:32PM 41.5792 -76.1842 North 252 290 13,300 -600 Descending New York Center
06:33PM 41.6567 -76.1764 North 267 307 12,300 -1,200 Descending New York Center
06:34PM 41.7319 -76.1714 North 277 319 10,900 -1,560 Descending New York Center
06:35PM 41.7986 -76.1686 North 272 313 9,200 -1,620 Descending New York Center
06:36PM 41.8675 -76.1658 North 262 302 7,700 -1,680 Descending New York Center
06:37PM 41.9406 -76.1606 North 247 284 5,900 -1,380 Descending New York Center
06:38PM 42.0044 -76.1267 22° Northeast 241 277 5,000 -900 Descending New York Center
06:39PM 42.0625 -76.0867 27° Northeast 231 266 4,100 -840 Descending New York Center
06:40PM 42.1167 -76.0408 32° Northeast 231 266 3,400 -720 Descending New York Center
06:41PM 42.1522 -75.9878 48° Northeast 209 241 2,700 -720 Descending New York Center
06:42PM 42.1828 -75.9592 35° Northeast 167 192 2,000 -360 Descending New York Center
06:43PM 42.2142 -75.9058 52° Northeast 167 192 2,000  Level New York Center